sensor_id;sensor_type;location;lat;lon;timestamp;P1;durP1;ratioP1;P2;durP2;ratioP2
33553;SDS011;19885;42.208;24.952;2022-10-16T00:00:32;8.63;;;3.60;;
33553;SDS011;19885;42.208;24.952;2022-10-16T00:02:59;5.80;;;3.47;;
33553;SDS011;19885;42.208;24.952;2022-10-16T00:05:28;6.80;;;3.37;;
33553;SDS011;19885;42.208;24.952;2022-10-16T00:07:54;7.87;;;4.13;;
33553;SDS011;19885;42.208;24.952;2022-10-16T00:10:20;6.97;;;4.60;;
33553;SDS011;19885;42.208;24.952;2022-10-16T00:12:46;7.10;;;4.07;;
33553;SDS011;19885;42.208;24.952;2022-10-16T00:15:11;5.53;;;3.20;;
33553;SDS011;19885;42.208;24.952;2022-10-16T00:17:37;6.23;;;3.70;;
33553;SDS011;19885;42.208;24.952;2022-10-16T00:20:02;6.47;;;4.17;;
33553;SDS011;19885;42.208;24.952;2022-10-16T00:22:28;6.57;;;4.37;;
33553;SDS011;19885;42.208;24.952;2022-10-16T00:24:54;10.73;;;4.13;;
33553;SDS011;19885;42.208;24.952;2022-10-16T00:27:19;5.67;;;4.03;;
33553;SDS011;19885;42.208;24.952;2022-10-16T00:29:48;6.70;;;4.23;;
33553;SDS011;19885;42.208;24.952;2022-10-16T00:32:18;5.27;;;4.20;;
33553;SDS011;19885;42.208;24.952;2022-10-16T00:34:44;8.20;;;4.57;;
33553;SDS011;19885;42.208;24.952;2022-10-16T00:37:10;7.43;;;3.20;;
33553;SDS011;19885;42.208;24.952;2022-10-16T00:39:36;6.87;;;3.93;;
33553;SDS011;19885;42.208;24.952;2022-10-16T00:42:02;6.00;;;3.73;;
33553;SDS011;19885;42.208;24.952;2022-10-16T00:47:48;8.23;;;5.03;;
33553;SDS011;19885;42.208;24.952;2022-10-16T00:50:32;5.93;;;3.50;;
33553;SDS011;19885;42.208;24.952;2022-10-16T00:52:58;4.50;;;3.30;;
33553;SDS011;19885;42.208;24.952;2022-10-16T00:55:29;6.40;;;3.97;;
33553;SDS011;19885;42.208;24.952;2022-10-16T00:57:55;5.10;;;3.80;;
33553;SDS011;19885;42.208;24.952;2022-10-16T01:00:27;6.20;;;3.70;;
33553;SDS011;19885;42.208;24.952;2022-10-16T01:02:56;5.97;;;4.23;;
33553;SDS011;19885;42.208;24.952;2022-10-16T01:05:25;5.43;;;3.87;;
33553;SDS011;19885;42.208;24.952;2022-10-16T01:10:59;8.53;;;4.00;;
33553;SDS011;19885;42.208;24.952;2022-10-16T01:13:35;8.17;;;3.97;;
33553;SDS011;19885;42.208;24.952;2022-10-16T01:16:13;5.23;;;3.43;;
33553;SDS011;19885;42.208;24.952;2022-10-16T01:21:42;4.83;;;3.90;;
33553;SDS011;19885;42.208;24.952;2022-10-16T01:29:42;8.70;;;4.03;;
33553;SDS011;19885;42.208;24.952;2022-10-16T01:32:21;4.50;;;3.77;;
33553;SDS011;19885;42.208;24.952;2022-10-16T01:35:10;4.50;;;3.87;;
33553;SDS011;19885;42.208;24.952;2022-10-16T01:37:51;5.37;;;3.77;;
33553;SDS011;19885;42.208;24.952;2022-10-16T01:40:17;6.17;;;3.60;;
33553;SDS011;19885;42.208;24.952;2022-10-16T01:42:46;6.73;;;3.67;;
33553;SDS011;19885;42.208;24.952;2022-10-16T01:45:17;7.23;;;3.20;;
33553;SDS011;19885;42.208;24.952;2022-10-16T01:47:45;5.10;;;3.47;;
33553;SDS011;19885;42.208;24.952;2022-10-16T01:50:13;4.00;;;3.13;;
33553;SDS011;19885;42.208;24.952;2022-10-16T01:52:42;6.47;;;3.97;;
33553;SDS011;19885;42.208;24.952;2022-10-16T01:55:13;5.57;;;3.53;;
33553;SDS011;19885;42.208;24.952;2022-10-16T01:57:43;4.77;;;3.73;;
33553;SDS011;19885;42.208;24.952;2022-10-16T02:00:13;5.13;;;3.57;;
33553;SDS011;19885;42.208;24.952;2022-10-16T02:02:44;2.97;;;2.40;;
33553;SDS011;19885;42.208;24.952;2022-10-16T02:05:20;6.13;;;3.50;;
33553;SDS011;19885;42.208;24.952;2022-10-16T02:07:50;4.70;;;3.50;;
33553;SDS011;19885;42.208;24.952;2022-10-16T02:10:16;6.37;;;3.57;;
33553;SDS011;19885;42.208;24.952;2022-10-16T02:12:44;6.47;;;3.40;;
33553;SDS011;19885;42.208;24.952;2022-10-16T02:15:15;3.90;;;2.50;;
33553;SDS011;19885;42.208;24.952;2022-10-16T02:17:40;6.73;;;3.40;;
33553;SDS011;19885;42.208;24.952;2022-10-16T02:20:06;4.50;;;2.77;;
33553;SDS011;19885;42.208;24.952;2022-10-16T02:22:44;4.13;;;2.63;;
33553;SDS011;19885;42.208;24.952;2022-10-16T02:25:21;7.30;;;2.70;;
33553;SDS011;19885;42.208;24.952;2022-10-16T02:27:50;3.60;;;2.73;;
33553;SDS011;19885;42.208;24.952;2022-10-16T02:33:16;5.40;;;2.77;;
33553;SDS011;19885;42.208;24.952;2022-10-16T02:35:44;4.20;;;2.67;;
33553;SDS011;19885;42.208;24.952;2022-10-16T02:38:14;3.97;;;3.20;;
33553;SDS011;19885;42.208;24.952;2022-10-16T02:40:41;5.00;;;3.73;;
33553;SDS011;19885;42.208;24.952;2022-10-16T02:43:07;4.37;;;2.87;;
33553;SDS011;19885;42.208;24.952;2022-10-16T02:45:34;4.93;;;3.07;;
33553;SDS011;19885;42.208;24.952;2022-10-16T02:48:00;10.20;;;3.30;;
33553;SDS011;19885;42.208;24.952;2022-10-16T02:50:26;12.10;;;3.17;;
33553;SDS011;19885;42.208;24.952;2022-10-16T02:52:52;4.77;;;3.13;;
33553;SDS011;19885;42.208;24.952;2022-10-16T02:55:17;4.07;;;3.17;;
33553;SDS011;19885;42.208;24.952;2022-10-16T02:57:43;3.70;;;2.87;;
33553;SDS011;19885;42.208;24.952;2022-10-16T03:00:12;12.90;;;3.67;;
33553;SDS011;19885;42.208;24.952;2022-10-16T03:02:39;3.90;;;3.00;;
33553;SDS011;19885;42.208;24.952;2022-10-16T03:05:05;3.83;;;3.43;;
33553;SDS011;19885;42.208;24.952;2022-10-16T03:07:31;4.87;;;3.23;;
33553;SDS011;19885;42.208;24.952;2022-10-16T03:09:56;5.50;;;3.37;;
33553;SDS011;19885;42.208;24.952;2022-10-16T03:12:25;6.83;;;3.80;;
33553;SDS011;19885;42.208;24.952;2022-10-16T03:14:54;7.33;;;4.17;;
33553;SDS011;19885;42.208;24.952;2022-10-16T03:17:22;5.93;;;4.30;;
33553;SDS011;19885;42.208;24.952;2022-10-16T03:19:48;7.97;;;5.37;;
33553;SDS011;19885;42.208;24.952;2022-10-16T03:22:14;7.43;;;5.80;;
33553;SDS011;19885;42.208;24.952;2022-10-16T03:24:40;8.17;;;5.00;;
33553;SDS011;19885;42.208;24.952;2022-10-16T03:27:05;7.73;;;5.60;;
33553;SDS011;19885;42.208;24.952;2022-10-16T03:29:31;9.50;;;6.90;;
33553;SDS011;19885;42.208;24.952;2022-10-16T03:31:58;10.33;;;6.50;;
33553;SDS011;19885;42.208;24.952;2022-10-16T03:34:26;11.37;;;5.67;;
33553;SDS011;19885;42.208;24.952;2022-10-16T03:36:51;7.83;;;5.83;;
33553;SDS011;19885;42.208;24.952;2022-10-16T03:39:17;6.93;;;4.33;;
33553;SDS011;19885;42.208;24.952;2022-10-16T03:41:43;8.60;;;5.30;;
33553;SDS011;19885;42.208;24.952;2022-10-16T03:44:13;7.70;;;4.37;;
33553;SDS011;19885;42.208;24.952;2022-10-16T03:46:42;6.13;;;4.80;;
33553;SDS011;19885;42.208;24.952;2022-10-16T03:49:07;6.73;;;4.90;;
33553;SDS011;19885;42.208;24.952;2022-10-16T03:51:33;5.53;;;4.43;;
33553;SDS011;19885;42.208;24.952;2022-10-16T03:53:58;9.17;;;4.23;;
33553;SDS011;19885;42.208;24.952;2022-10-16T03:56:24;5.27;;;3.97;;
33553;SDS011;19885;42.208;24.952;2022-10-16T03:58:49;3.93;;;3.53;;
33553;SDS011;19885;42.208;24.952;2022-10-16T04:01:15;7.13;;;3.33;;
33553;SDS011;19885;42.208;24.952;2022-10-16T04:03:40;4.43;;;3.30;;
33553;SDS011;19885;42.208;24.952;2022-10-16T04:06:06;7.07;;;4.30;;
33553;SDS011;19885;42.208;24.952;2022-10-16T04:08:34;6.53;;;3.93;;
33553;SDS011;19885;42.208;24.952;2022-10-16T04:11:01;6.37;;;3.43;;
33553;SDS011;19885;42.208;24.952;2022-10-16T04:13:28;7.50;;;3.83;;
33553;SDS011;19885;42.208;24.952;2022-10-16T04:15:54;4.33;;;3.30;;
33553;SDS011;19885;42.208;24.952;2022-10-16T04:18:20;4.60;;;3.40;;
33553;SDS011;19885;42.208;24.952;2022-10-16T04:20:45;8.93;;;3.47;;
33553;SDS011;19885;42.208;24.952;2022-10-16T04:23:11;5.63;;;4.23;;
33553;SDS011;19885;42.208;24.952;2022-10-16T04:25:36;8.20;;;3.67;;
33553;SDS011;19885;42.208;24.952;2022-10-16T04:28:02;3.63;;;3.07;;
33553;SDS011;19885;42.208;24.952;2022-10-16T04:30:28;4.43;;;3.83;;
33553;SDS011;19885;42.208;24.952;2022-10-16T04:32:54;9.57;;;4.20;;
33553;SDS011;19885;42.208;24.952;2022-10-16T04:35:21;18.10;;;4.33;;
33553;SDS011;19885;42.208;24.952;2022-10-16T04:37:47;6.03;;;3.27;;
33553;SDS011;19885;42.208;24.952;2022-10-16T04:40:15;6.20;;;4.40;;
33553;SDS011;19885;42.208;24.952;2022-10-16T04:42:41;4.63;;;3.47;;
33553;SDS011;19885;42.208;24.952;2022-10-16T04:45:07;5.67;;;3.83;;
33553;SDS011;19885;42.208;24.952;2022-10-16T04:47:33;5.40;;;3.57;;
33553;SDS011;19885;42.208;24.952;2022-10-16T04:49:58;6.03;;;4.13;;
33553;SDS011;19885;42.208;24.952;2022-10-16T04:52:27;5.63;;;3.80;;
33553;SDS011;19885;42.208;24.952;2022-10-16T04:54:53;5.67;;;3.60;;
33553;SDS011;19885;42.208;24.952;2022-10-16T04:57:20;4.47;;;4.00;;
33553;SDS011;19885;42.208;24.952;2022-10-16T04:59:45;7.37;;;4.27;;
33553;SDS011;19885;42.208;24.952;2022-10-16T05:02:11;10.30;;;4.83;;
33553;SDS011;19885;42.208;24.952;2022-10-16T05:04:36;6.73;;;3.93;;
33553;SDS011;19885;42.208;24.952;2022-10-16T05:07:02;4.50;;;3.83;;
33553;SDS011;19885;42.208;24.952;2022-10-16T05:09:27;5.90;;;4.00;;
33553;SDS011;19885;42.208;24.952;2022-10-16T05:11:53;7.27;;;3.80;;
33553;SDS011;19885;42.208;24.952;2022-10-16T05:14:18;6.87;;;4.20;;
33553;SDS011;19885;42.208;24.952;2022-10-16T05:16:44;6.53;;;4.00;;
33553;SDS011;19885;42.208;24.952;2022-10-16T05:19:10;7.13;;;3.70;;
33553;SDS011;19885;42.208;24.952;2022-10-16T05:21:35;7.07;;;4.27;;
33553;SDS011;19885;42.208;24.952;2022-10-16T05:24:01;5.63;;;3.70;;
33553;SDS011;19885;42.208;24.952;2022-10-16T05:26:26;6.07;;;4.37;;
33553;SDS011;19885;42.208;24.952;2022-10-16T05:28:52;5.97;;;4.27;;
33553;SDS011;19885;42.208;24.952;2022-10-16T05:31:17;9.10;;;4.67;;
33553;SDS011;19885;42.208;24.952;2022-10-16T05:33:43;6.83;;;4.27;;
33553;SDS011;19885;42.208;24.952;2022-10-16T05:36:09;5.83;;;3.87;;
33553;SDS011;19885;42.208;24.952;2022-10-16T05:38:35;4.33;;;2.93;;
33553;SDS011;19885;42.208;24.952;2022-10-16T05:41:02;11.70;;;3.97;;
33553;SDS011;19885;42.208;24.952;2022-10-16T05:43:28;6.23;;;4.07;;
33553;SDS011;19885;42.208;24.952;2022-10-16T05:45:55;4.73;;;3.60;;
33553;SDS011;19885;42.208;24.952;2022-10-16T05:48:20;5.13;;;3.90;;
33553;SDS011;19885;42.208;24.952;2022-10-16T05:50:46;5.47;;;4.37;;
33553;SDS011;19885;42.208;24.952;2022-10-16T05:53:11;7.67;;;3.30;;
33553;SDS011;19885;42.208;24.952;2022-10-16T05:55:37;8.70;;;3.87;;
33553;SDS011;19885;42.208;24.952;2022-10-16T05:58:02;5.20;;;3.67;;
33553;SDS011;19885;42.208;24.952;2022-10-16T06:00:28;4.53;;;3.60;;
33553;SDS011;19885;42.208;24.952;2022-10-16T06:02:53;9.97;;;4.23;;
33553;SDS011;19885;42.208;24.952;2022-10-16T06:05:19;4.03;;;3.53;;
33553;SDS011;19885;42.208;24.952;2022-10-16T06:07:44;5.03;;;4.40;;
33553;SDS011;19885;42.208;24.952;2022-10-16T06:10:09;6.93;;;3.70;;
33553;SDS011;19885;42.208;24.952;2022-10-16T06:12:35;6.40;;;3.93;;
33553;SDS011;19885;42.208;24.952;2022-10-16T06:15:00;7.30;;;4.40;;
33553;SDS011;19885;42.208;24.952;2022-10-16T06:17:26;4.50;;;3.60;;
33553;SDS011;19885;42.208;24.952;2022-10-16T06:19:51;6.83;;;3.90;;
33553;SDS011;19885;42.208;24.952;2022-10-16T06:22:17;6.53;;;4.63;;
33553;SDS011;19885;42.208;24.952;2022-10-16T06:24:42;5.63;;;4.57;;
33553;SDS011;19885;42.208;24.952;2022-10-16T06:27:08;8.60;;;4.20;;
33553;SDS011;19885;42.208;24.952;2022-10-16T06:29:33;5.33;;;4.53;;
33553;SDS011;19885;42.208;24.952;2022-10-16T06:31:59;14.10;;;5.20;;
33553;SDS011;19885;42.208;24.952;2022-10-16T06:34:25;9.70;;;4.83;;
33553;SDS011;19885;42.208;24.952;2022-10-16T06:36:50;9.67;;;4.93;;
33553;SDS011;19885;42.208;24.952;2022-10-16T06:39:16;10.10;;;5.10;;
33553;SDS011;19885;42.208;24.952;2022-10-16T06:41:41;6.57;;;4.87;;
33553;SDS011;19885;42.208;24.952;2022-10-16T06:44:07;6.50;;;4.70;;
33553;SDS011;19885;42.208;24.952;2022-10-16T06:46:33;5.80;;;4.53;;
33553;SDS011;19885;42.208;24.952;2022-10-16T06:48:59;9.23;;;4.80;;
33553;SDS011;19885;42.208;24.952;2022-10-16T06:51:25;5.47;;;4.47;;
33553;SDS011;19885;42.208;24.952;2022-10-16T06:53:52;7.07;;;4.60;;
33553;SDS011;19885;42.208;24.952;2022-10-16T06:56:20;9.33;;;4.67;;
33553;SDS011;19885;42.208;24.952;2022-10-16T06:58:47;4.93;;;3.67;;
33553;SDS011;19885;42.208;24.952;2022-10-16T07:01:14;7.83;;;4.27;;
33553;SDS011;19885;42.208;24.952;2022-10-16T07:03:41;6.80;;;3.77;;
33553;SDS011;19885;42.208;24.952;2022-10-16T07:06:08;7.20;;;5.00;;
33553;SDS011;19885;42.208;24.952;2022-10-16T07:08:37;6.93;;;4.57;;
33553;SDS011;19885;42.208;24.952;2022-10-16T07:11:05;8.77;;;4.20;;
33553;SDS011;19885;42.208;24.952;2022-10-16T07:13:33;5.57;;;3.90;;
33553;SDS011;19885;42.208;24.952;2022-10-16T07:16:04;6.07;;;4.57;;
33553;SDS011;19885;42.208;24.952;2022-10-16T07:18:33;5.97;;;4.23;;
33553;SDS011;19885;42.208;24.952;2022-10-16T07:21:06;9.50;;;4.33;;
33553;SDS011;19885;42.208;24.952;2022-10-16T07:23:36;7.70;;;3.97;;
33553;SDS011;19885;42.208;24.952;2022-10-16T07:26:05;5.13;;;3.27;;
33553;SDS011;19885;42.208;24.952;2022-10-16T07:28:32;8.80;;;4.40;;
33553;SDS011;19885;42.208;24.952;2022-10-16T07:31:06;10.10;;;4.37;;
33553;SDS011;19885;42.208;24.952;2022-10-16T07:33:35;4.67;;;4.27;;
33553;SDS011;19885;42.208;24.952;2022-10-16T07:36:03;10.40;;;5.20;;
33553;SDS011;19885;42.208;24.952;2022-10-16T07:38:29;6.20;;;4.07;;
33553;SDS011;19885;42.208;24.952;2022-10-16T07:40:55;17.00;;;4.93;;
33553;SDS011;19885;42.208;24.952;2022-10-16T07:43:25;4.50;;;3.57;;
33553;SDS011;19885;42.208;24.952;2022-10-16T07:45:51;5.93;;;3.97;;
33553;SDS011;19885;42.208;24.952;2022-10-16T07:48:20;7.83;;;4.20;;
33553;SDS011;19885;42.208;24.952;2022-10-16T07:50:46;18.77;;;4.40;;
33553;SDS011;19885;42.208;24.952;2022-10-16T07:53:12;6.13;;;3.40;;
33553;SDS011;19885;42.208;24.952;2022-10-16T07:55:40;7.43;;;3.97;;
33553;SDS011;19885;42.208;24.952;2022-10-16T07:58:05;4.83;;;3.67;;
33553;SDS011;19885;42.208;24.952;2022-10-16T08:00:31;10.83;;;3.30;;
33553;SDS011;19885;42.208;24.952;2022-10-16T08:02:58;8.27;;;4.03;;
33553;SDS011;19885;42.208;24.952;2022-10-16T08:05:29;4.90;;;3.57;;
33553;SDS011;19885;42.208;24.952;2022-10-16T08:07:56;5.93;;;3.67;;
33553;SDS011;19885;42.208;24.952;2022-10-16T08:10:23;8.87;;;4.73;;
33553;SDS011;19885;42.208;24.952;2022-10-16T08:12:53;9.83;;;4.70;;
33553;SDS011;19885;42.208;24.952;2022-10-16T08:15:19;7.07;;;3.43;;
33553;SDS011;19885;42.208;24.952;2022-10-16T08:17:56;10.23;;;4.40;;
33553;SDS011;19885;42.208;24.952;2022-10-16T08:20:23;4.30;;;3.40;;
33553;SDS011;19885;42.208;24.952;2022-10-16T08:22:48;8.33;;;3.90;;
33553;SDS011;19885;42.208;24.952;2022-10-16T08:25:14;5.03;;;3.53;;
33553;SDS011;19885;42.208;24.952;2022-10-16T08:27:39;5.10;;;3.40;;
33553;SDS011;19885;42.208;24.952;2022-10-16T08:30:05;4.77;;;3.50;;
33553;SDS011;19885;42.208;24.952;2022-10-16T08:32:31;4.80;;;3.47;;
33553;SDS011;19885;42.208;24.952;2022-10-16T08:34:57;6.10;;;3.03;;
33553;SDS011;19885;42.208;24.952;2022-10-16T08:37:22;10.50;;;3.30;;
33553;SDS011;19885;42.208;24.952;2022-10-16T08:39:48;7.27;;;2.90;;
33553;SDS011;19885;42.208;24.952;2022-10-16T08:42:16;11.13;;;4.07;;
33553;SDS011;19885;42.208;24.952;2022-10-16T08:50:14;4.47;;;3.57;;
33553;SDS011;19885;42.208;24.952;2022-10-16T08:52:47;7.00;;;3.33;;
33553;SDS011;19885;42.208;24.952;2022-10-16T08:55:25;7.13;;;3.20;;
33553;SDS011;19885;42.208;24.952;2022-10-16T08:57:53;5.07;;;3.00;;
33553;SDS011;19885;42.208;24.952;2022-10-16T09:00:19;3.77;;;2.73;;
33553;SDS011;19885;42.208;24.952;2022-10-16T09:02:49;3.67;;;3.00;;
33553;SDS011;19885;42.208;24.952;2022-10-16T09:07:58;7.20;;;3.17;;
33553;SDS011;19885;42.208;24.952;2022-10-16T09:13:19;3.73;;;3.23;;
33553;SDS011;19885;42.208;24.952;2022-10-16T09:18:30;3.50;;;2.63;;
33553;SDS011;19885;42.208;24.952;2022-10-16T09:21:06;9.40;;;2.97;;
33553;SDS011;19885;42.208;24.952;2022-10-16T09:23:54;3.53;;;2.30;;
33553;SDS011;19885;42.208;24.952;2022-10-16T09:26:27;5.07;;;2.33;;
33553;SDS011;19885;42.208;24.952;2022-10-16T09:28:53;6.23;;;3.00;;
33553;SDS011;19885;42.208;24.952;2022-10-16T09:31:19;4.80;;;2.93;;
33553;SDS011;19885;42.208;24.952;2022-10-16T09:33:57;5.07;;;3.50;;
33553;SDS011;19885;42.208;24.952;2022-10-16T09:36:25;3.50;;;2.87;;
33553;SDS011;19885;42.208;24.952;2022-10-16T09:39:04;2.80;;;2.40;;
33553;SDS011;19885;42.208;24.952;2022-10-16T09:41:33;6.27;;;3.00;;
33553;SDS011;19885;42.208;24.952;2022-10-16T09:44:27;3.70;;;2.77;;
33553;SDS011;19885;42.208;24.952;2022-10-16T09:49:52;4.23;;;2.97;;
33553;SDS011;19885;42.208;24.952;2022-10-16T09:52:21;6.33;;;2.83;;
33553;SDS011;19885;42.208;24.952;2022-10-16T09:54:51;4.27;;;2.67;;
33553;SDS011;19885;42.208;24.952;2022-10-16T09:57:18;2.43;;;2.20;;
33553;SDS011;19885;42.208;24.952;2022-10-16T09:59:49;4.60;;;2.70;;
33553;SDS011;19885;42.208;24.952;2022-10-16T10:02:17;4.17;;;2.40;;
33553;SDS011;19885;42.208;24.952;2022-10-16T10:04:50;3.70;;;2.83;;
33553;SDS011;19885;42.208;24.952;2022-10-16T10:07:25;4.47;;;2.23;;
33553;SDS011;19885;42.208;24.952;2022-10-16T10:09:59;5.13;;;2.67;;
33553;SDS011;19885;42.208;24.952;2022-10-16T10:12:28;3.33;;;2.50;;
33553;SDS011;19885;42.208;24.952;2022-10-16T10:15:07;3.33;;;2.63;;
33553;SDS011;19885;42.208;24.952;2022-10-16T10:17:45;3.40;;;1.90;;
33553;SDS011;19885;42.208;24.952;2022-10-16T10:20:28;5.30;;;2.17;;
33553;SDS011;19885;42.208;24.952;2022-10-16T10:22:57;3.40;;;2.47;;
33553;SDS011;19885;42.208;24.952;2022-10-16T10:33:40;3.25;;;2.33;;
33553;SDS011;19885;42.208;24.952;2022-10-16T10:36:22;12.30;;;2.63;;
33553;SDS011;19885;42.208;24.952;2022-10-16T10:47:44;4.90;;;2.58;;
33553;SDS011;19885;42.208;24.952;2022-10-16T10:55:03;3.63;;;2.33;;
33553;SDS011;19885;42.208;24.952;2022-10-16T11:00:30;4.28;;;2.50;;
33553;SDS011;19885;42.208;24.952;2022-10-16T11:03:11;6.22;;;2.83;;
33553;SDS011;19885;42.208;24.952;2022-10-16T11:05:50;3.88;;;2.60;;
33553;SDS011;19885;42.208;24.952;2022-10-16T11:08:29;3.65;;;2.13;;
33553;SDS011;19885;42.208;24.952;2022-10-16T11:13:33;11.40;;;3.17;;
33553;SDS011;19885;42.208;24.952;2022-10-16T11:24:59;5.57;;;3.00;;
33553;SDS011;19885;42.208;24.952;2022-10-16T11:27:50;4.88;;;2.85;;
33553;SDS011;19885;42.208;24.952;2022-10-16T11:30:25;3.13;;;2.15;;
33553;SDS011;19885;42.208;24.952;2022-10-16T11:35:25;4.20;;;2.72;;
33553;SDS011;19885;42.208;24.952;2022-10-16T11:38:15;2.90;;;2.33;;
33553;SDS011;19885;42.208;24.952;2022-10-16T11:40:47;8.25;;;2.17;;
33553;SDS011;19885;42.208;24.952;2022-10-16T11:43:28;23.25;;;2.88;;
33553;SDS011;19885;42.208;24.952;2022-10-16T11:46:14;18.08;;;2.42;;
33553;SDS011;19885;42.208;24.952;2022-10-16T11:48:46;7.68;;;2.78;;
33553;SDS011;19885;42.208;24.952;2022-10-16T11:56:36;6.22;;;2.58;;
33553;SDS011;19885;42.208;24.952;2022-10-16T11:59:08;3.40;;;2.65;;
33553;SDS011;19885;42.208;24.952;2022-10-16T12:01:48;7.22;;;2.40;;
33553;SDS011;19885;42.208;24.952;2022-10-16T12:07:05;4.22;;;2.88;;
33553;SDS011;19885;42.208;24.952;2022-10-16T12:09:37;4.53;;;2.78;;
33553;SDS011;19885;42.208;24.952;2022-10-16T12:12:04;4.10;;;2.47;;
33553;SDS011;19885;42.208;24.952;2022-10-16T12:14:34;3.05;;;2.75;;
33553;SDS011;19885;42.208;24.952;2022-10-16T12:17:22;9.02;;;2.75;;
33553;SDS011;19885;42.208;24.952;2022-10-16T12:23:16;3.67;;;2.58;;
33553;SDS011;19885;42.208;24.952;2022-10-16T12:25:53;4.30;;;2.83;;
33553;SDS011;19885;42.208;24.952;2022-10-16T12:28:21;8.45;;;4.25;;
33553;SDS011;19885;42.208;24.952;2022-10-16T12:30:56;5.68;;;3.60;;
33553;SDS011;19885;42.208;24.952;2022-10-16T12:33:34;3.40;;;2.40;;
33553;SDS011;19885;42.208;24.952;2022-10-16T12:36:03;4.15;;;2.55;;
33553;SDS011;19885;42.208;24.952;2022-10-16T12:38:38;10.65;;;3.67;;
33553;SDS011;19885;42.208;24.952;2022-10-16T12:41:32;9.33;;;2.43;;
33553;SDS011;19885;42.208;24.952;2022-10-16T12:43:59;3.73;;;2.53;;
33553;SDS011;19885;42.208;24.952;2022-10-16T12:49:55;5.10;;;2.20;;
33553;SDS011;19885;42.208;24.952;2022-10-16T12:52:02;7.53;;;3.53;;
33553;SDS011;19885;42.208;24.952;2022-10-16T12:54:29;7.93;;;2.40;;
33553;SDS011;19885;42.208;24.952;2022-10-16T13:00:28;4.37;;;3.10;;
33553;SDS011;19885;42.208;24.952;2022-10-16T13:08:52;3.43;;;2.30;;
33553;SDS011;19885;42.208;24.952;2022-10-16T13:11:45;2.93;;;2.50;;
33553;SDS011;19885;42.208;24.952;2022-10-16T13:17:11;8.97;;;3.20;;
33553;SDS011;19885;42.208;24.952;2022-10-16T13:28:10;6.30;;;2.60;;
33553;SDS011;19885;42.208;24.952;2022-10-16T13:30:45;6.43;;;3.23;;
33553;SDS011;19885;42.208;24.952;2022-10-16T13:36:00;2.53;;;2.33;;
33553;SDS011;19885;42.208;24.952;2022-10-16T13:38:27;5.77;;;2.60;;
33553;SDS011;19885;42.208;24.952;2022-10-16T13:46:00;8.13;;;2.90;;
33553;SDS011;19885;42.208;24.952;2022-10-16T13:48:28;4.40;;;3.17;;
33553;SDS011;19885;42.208;24.952;2022-10-16T13:53:42;13.57;;;3.33;;
33553;SDS011;19885;42.208;24.952;2022-10-16T13:56:10;6.93;;;2.83;;
33553;SDS011;19885;42.208;24.952;2022-10-16T13:58:38;7.30;;;3.17;;
33553;SDS011;19885;42.208;24.952;2022-10-16T14:01:16;3.87;;;2.83;;
33553;SDS011;19885;42.208;24.952;2022-10-16T14:03:45;6.30;;;3.40;;
33553;SDS011;19885;42.208;24.952;2022-10-16T14:06:16;12.57;;;3.07;;
33553;SDS011;19885;42.208;24.952;2022-10-16T14:08:48;4.40;;;3.07;;
33553;SDS011;19885;42.208;24.952;2022-10-16T14:11:26;19.53;;;3.40;;
33553;SDS011;19885;42.208;24.952;2022-10-16T14:13:53;13.27;;;3.43;;
33553;SDS011;19885;42.208;24.952;2022-10-16T14:16:23;20.90;;;3.53;;
33553;SDS011;19885;42.208;24.952;2022-10-16T14:21:23;5.43;;;2.90;;
33553;SDS011;19885;42.208;24.952;2022-10-16T14:23:49;4.83;;;3.27;;
33553;SDS011;19885;42.208;24.952;2022-10-16T14:26:17;3.87;;;2.77;;
33553;SDS011;19885;42.208;24.952;2022-10-16T14:28:45;5.10;;;3.37;;
33553;SDS011;19885;42.208;24.952;2022-10-16T14:33:53;5.93;;;3.20;;
33553;SDS011;19885;42.208;24.952;2022-10-16T14:36:19;7.37;;;3.77;;
33553;SDS011;19885;42.208;24.952;2022-10-16T14:38:54;5.80;;;3.07;;
33553;SDS011;19885;42.208;24.952;2022-10-16T14:41:25;3.50;;;2.83;;
33553;SDS011;19885;42.208;24.952;2022-10-16T14:43:55;6.93;;;3.40;;
33553;SDS011;19885;42.208;24.952;2022-10-16T14:46:30;6.10;;;3.67;;
33553;SDS011;19885;42.208;24.952;2022-10-16T14:49:00;13.03;;;4.10;;
33553;SDS011;19885;42.208;24.952;2022-10-16T14:51:41;17.60;;;3.27;;
33553;SDS011;19885;42.208;24.952;2022-10-16T14:54:09;5.90;;;3.43;;
33553;SDS011;19885;42.208;24.952;2022-10-16T14:56:43;11.03;;;4.17;;
33553;SDS011;19885;42.208;24.952;2022-10-16T14:59:28;6.77;;;4.07;;
33553;SDS011;19885;42.208;24.952;2022-10-16T15:01:57;10.77;;;4.03;;
33553;SDS011;19885;42.208;24.952;2022-10-16T15:04:23;7.30;;;3.97;;
33553;SDS011;19885;42.208;24.952;2022-10-16T15:06:51;9.20;;;3.80;;
33553;SDS011;19885;42.208;24.952;2022-10-16T15:09:17;7.10;;;3.40;;
33553;SDS011;19885;42.208;24.952;2022-10-16T15:11:42;7.83;;;4.03;;
33553;SDS011;19885;42.208;24.952;2022-10-16T15:14:11;9.47;;;3.37;;
33553;SDS011;19885;42.208;24.952;2022-10-16T15:16:40;11.13;;;3.93;;
33553;SDS011;19885;42.208;24.952;2022-10-16T15:19:06;5.30;;;3.47;;
33553;SDS011;19885;42.208;24.952;2022-10-16T15:21:32;6.60;;;3.50;;
33553;SDS011;19885;42.208;24.952;2022-10-16T15:23:58;12.50;;;4.20;;
33553;SDS011;19885;42.208;24.952;2022-10-16T15:26:28;17.10;;;4.90;;
33553;SDS011;19885;42.208;24.952;2022-10-16T15:28:56;16.17;;;6.13;;
33553;SDS011;19885;42.208;24.952;2022-10-16T15:31:25;29.87;;;5.40;;
33553;SDS011;19885;42.208;24.952;2022-10-16T15:33:52;10.63;;;4.27;;
33553;SDS011;19885;42.208;24.952;2022-10-16T15:36:24;13.30;;;4.03;;
33553;SDS011;19885;42.208;24.952;2022-10-16T15:38:54;16.43;;;4.97;;
33553;SDS011;19885;42.208;24.952;2022-10-16T15:41:21;9.33;;;3.80;;
33553;SDS011;19885;42.208;24.952;2022-10-16T15:43:50;15.13;;;4.20;;
33553;SDS011;19885;42.208;24.952;2022-10-16T15:46:17;15.93;;;3.70;;
33553;SDS011;19885;42.208;24.952;2022-10-16T15:48:44;11.47;;;4.20;;
33553;SDS011;19885;42.208;24.952;2022-10-16T15:51:12;18.40;;;5.47;;
33553;SDS011;19885;42.208;24.952;2022-10-16T15:53:39;11.33;;;4.27;;
33553;SDS011;19885;42.208;24.952;2022-10-16T15:56:05;6.83;;;3.03;;
33553;SDS011;19885;42.208;24.952;2022-10-16T15:58:32;10.27;;;3.97;;
33553;SDS011;19885;42.208;24.952;2022-10-16T16:01:01;12.27;;;3.67;;
33553;SDS011;19885;42.208;24.952;2022-10-16T16:03:29;3.93;;;3.23;;
33553;SDS011;19885;42.208;24.952;2022-10-16T16:05:55;10.57;;;4.83;;
33553;SDS011;19885;42.208;24.952;2022-10-16T16:08:21;6.03;;;4.07;;
33553;SDS011;19885;42.208;24.952;2022-10-16T16:13:26;9.00;;;4.07;;
33553;SDS011;19885;42.208;24.952;2022-10-16T16:15:52;6.50;;;4.00;;
33553;SDS011;19885;42.208;24.952;2022-10-16T16:18:18;10.87;;;5.03;;
33553;SDS011;19885;42.208;24.952;2022-10-16T16:20:43;6.30;;;3.70;;
33553;SDS011;19885;42.208;24.952;2022-10-16T16:23:09;8.80;;;4.67;;
33553;SDS011;19885;42.208;24.952;2022-10-16T16:25:38;13.03;;;4.67;;
33553;SDS011;19885;42.208;24.952;2022-10-16T16:28:03;8.13;;;4.23;;
33553;SDS011;19885;42.208;24.952;2022-10-16T16:30:31;12.47;;;4.97;;
33553;SDS011;19885;42.208;24.952;2022-10-16T16:32:59;11.70;;;5.67;;
33553;SDS011;19885;42.208;24.952;2022-10-16T16:35:24;13.23;;;5.80;;
33553;SDS011;19885;42.208;24.952;2022-10-16T16:37:50;12.20;;;5.60;;
33553;SDS011;19885;42.208;24.952;2022-10-16T16:40:15;13.83;;;5.90;;
33553;SDS011;19885;42.208;24.952;2022-10-16T16:42:41;17.13;;;5.80;;
33553;SDS011;19885;42.208;24.952;2022-10-16T16:45:07;7.90;;;5.73;;
33553;SDS011;19885;42.208;24.952;2022-10-16T16:47:33;9.80;;;5.60;;
33553;SDS011;19885;42.208;24.952;2022-10-16T16:49:58;19.70;;;8.03;;